createdAt,value
2018-05-14T00:00:33.685Z,95.71
2018-05-14T00:03:07.521Z,95.66
2018-05-14T00:05:41.414Z,95.77
2018-05-14T00:08:15.167Z,95.73
2018-05-14T00:10:48.988Z,95.76
2018-05-14T00:13:23.265Z,95.76
2018-05-14T00:15:56.982Z,95.74
2018-05-14T00:18:31.803Z,95.89
2018-05-14T00:21:05.593Z,95.91
2018-05-14T00:23:39.372Z,96.03
2018-05-14T00:26:13.082Z,96.13
2018-05-14T00:28:46.918Z,96.19
2018-05-14T00:31:20.717Z,96.10
2018-05-14T00:33:54.618Z,96.14
2018-05-14T00:36:29.317Z,96.15
2018-05-14T00:39:03.191Z,96.15
2018-05-14T00:41:37.923Z,96.15
2018-05-14T00:44:11.693Z,96.08
2018-05-14T00:46:45.372Z,96.03
2018-05-14T00:49:19.157Z,96.05
2018-05-14T00:51:52.825Z,95.94
2018-05-14T00:54:26.617Z,96.03
2018-05-14T00:57:00.354Z,95.98
2018-05-14T00:59:34.229Z,95.92
2018-05-14T01:02:07.794Z,96.03
2018-05-14T01:04:42.512Z,96.04
2018-05-14T01:07:16.361Z,96.01
2018-05-14T01:09:50.129Z,96.12
2018-05-14T01:12:23.889Z,96.04
2018-05-14T01:14:57.656Z,96.10
2018-05-14T01:17:31.315Z,96.17
2018-05-14T01:20:05.177Z,96.19
2018-05-14T01:22:38.889Z,96.32
2018-05-14T01:25:12.596Z,96.42
2018-05-14T01:27:46.195Z,96.50
2018-05-14T01:30:19.933Z,96.52
2018-05-14T01:32:53.652Z,96.54
2018-05-14T01:35:27.365Z,96.57
2018-05-14T01:38:01.145Z,96.65
2018-05-14T01:40:35.026Z,96.71
2018-05-14T01:43:08.750Z,96.78
2018-05-14T01:45:42.545Z,96.76
2018-05-14T01:48:16.370Z,96.60
2018-05-14T01:50:50.147Z,96.59
2018-05-14T01:53:23.830Z,96.61
2018-05-14T01:55:57.620Z,96.82
2018-05-14T01:58:31.337Z,96.71
2018-05-14T02:01:05.045Z,96.80
2018-05-14T02:03:38.768Z,96.86
2018-05-14T02:06:12.481Z,96.80
2018-05-14T02:08:46.382Z,96.84
2018-05-14T02:11:20.193Z,96.82
2018-05-14T02:13:53.962Z,96.84
2018-05-14T02:16:27.748Z,96.74
2018-05-14T02:19:01.494Z,96.71
2018-05-14T02:21:35.231Z,96.79
2018-05-14T02:24:08.868Z,96.78
2018-05-14T02:26:42.497Z,96.70
2018-05-14T02:29:16.428Z,96.71
2018-05-14T02:31:50.146Z,96.63
2018-05-14T02:34:23.789Z,96.66
2018-05-14T02:40:11.592Z,96.71
2018-05-14T02:42:45.299Z,96.57
2018-05-14T02:45:19.056Z,96.63
2018-05-14T02:47:52.770Z,96.55
2018-05-14T02:50:26.551Z,96.39
2018-05-14T02:53:00.422Z,96.29
2018-05-14T02:55:34.313Z,96.38
2018-05-14T02:58:08.007Z,96.28
2018-05-14T03:00:41.714Z,96.26
2018-05-14T03:03:15.329Z,96.30
2018-05-14T03:05:49.170Z,96.29
2018-05-14T03:08:22.953Z,96.22
2018-05-14T03:10:56.706Z,96.21
2018-05-14T03:13:30.342Z,96.08
2018-05-14T03:16:04.044Z,96.22
2018-05-14T03:18:37.745Z,96.26
2018-05-14T03:21:11.381Z,96.18
2018-05-14T03:23:45.025Z,96.07
2018-05-14T03:26:18.805Z,95.96
2018-05-14T03:28:52.506Z,95.87
2018-05-14T03:31:26.276Z,95.98
2018-05-14T03:34:00.038Z,96.00
2018-05-14T03:36:33.822Z,96.11
2018-05-14T03:39:07.389Z,95.96
2018-05-14T03:41:41.114Z,95.80
2018-05-14T03:44:14.785Z,95.88
2018-05-14T03:46:48.623Z,95.92
2018-05-14T03:49:22.279Z,95.91
2018-05-14T03:51:55.973Z,95.90
2018-05-14T03:54:29.858Z,95.75
2018-05-14T03:57:18.244Z,95.74
2018-05-14T04:00:03.677Z,95.54
2018-05-14T04:02:49.325Z,95.35
2018-05-14T04:08:16.968Z,95.36
2018-05-14T04:10:50.971Z,95.19
2018-05-14T04:13:24.455Z,95.36
2018-05-14T04:15:58.014Z,95.35
2018-05-14T04:18:31.597Z,95.20
2018-05-14T04:21:05.303Z,95.04
2018-05-14T04:23:39.506Z,95.15
2018-05-14T04:26:13.248Z,95.02
2018-05-14T04:28:46.791Z,94.80
2018-05-14T04:31:20.355Z,94.86
2018-05-14T04:33:53.952Z,94.77
2018-05-14T04:36:27.575Z,94.70
2018-05-14T04:39:01.194Z,94.69
2018-05-14T04:41:34.828Z,94.70
2018-05-14T04:44:08.549Z,94.60
2018-05-14T04:46:42.145Z,94.13
2018-05-14T04:49:15.817Z,94.40
2018-05-14T04:51:49.476Z,94.53
2018-05-14T04:54:23.303Z,94.41
2018-05-14T04:56:57.173Z,94.32
2018-05-14T04:59:30.948Z,94.05
2018-05-14T05:02:04.526Z,94.19
2018-05-14T05:04:38.271Z,93.84
2018-05-14T05:07:11.947Z,93.50
2018-05-14T05:09:45.631Z,93.41
2018-05-14T05:12:19.195Z,92.88
2018-05-14T05:14:52.750Z,92.54
2018-05-14T05:17:26.610Z,92.57
2018-05-14T05:20:00.164Z,92.79
2018-05-14T05:22:33.972Z,92.76
2018-05-14T05:25:07.676Z,92.73
2018-05-14T05:27:41.359Z,92.55
2018-05-14T05:30:15.131Z,92.05
2018-05-14T05:32:48.767Z,92.22
2018-05-14T05:35:22.471Z,92.44
2018-05-14T05:37:56.284Z,91.83
2018-05-14T05:40:29.787Z,92.10
2018-05-14T05:43:03.608Z,91.71
2018-05-14T05:45:37.394Z,91.57
2018-05-14T05:48:11.263Z,90.60
2018-05-14T05:50:44.905Z,90.42
2018-05-14T05:53:18.435Z,90.72
2018-05-14T05:55:52.253Z,91.33
2018-05-14T05:58:25.968Z,91.43
2018-05-14T06:00:59.826Z,90.60
2018-05-14T06:03:33.638Z,90.78
2018-05-14T06:06:07.208Z,90.87
2018-05-14T06:08:40.786Z,89.65
2018-05-14T06:11:14.424Z,89.42
2018-05-14T06:13:47.946Z,88.68
2018-05-14T06:16:21.636Z,88.59
2018-05-14T06:18:55.408Z,88.75
2018-05-14T06:21:29.011Z,88.69
2018-05-14T06:24:02.653Z,87.87
2018-05-14T06:26:36.372Z,87.48
2018-05-14T06:29:10.136Z,87.97
2018-05-14T06:31:43.694Z,87.63
2018-05-14T06:34:17.382Z,86.83
2018-05-14T06:36:51.125Z,84.76
2018-05-14T06:39:25.180Z,84.23
2018-05-14T06:41:58.840Z,85.03
2018-05-14T06:44:32.396Z,83.75
2018-05-14T06:47:06.034Z,84.17
2018-05-14T06:49:39.676Z,84.08
2018-05-14T06:52:13.499Z,84.13
2018-05-14T06:54:47.108Z,83.45
2018-05-14T06:57:20.675Z,83.83
2018-05-14T06:59:54.214Z,81.49
2018-05-14T07:02:27.941Z,80.81
2018-05-14T07:05:01.582Z,77.84
2018-05-14T07:07:35.136Z,77.64
2018-05-14T07:10:08.702Z,74.55
2018-05-14T07:12:42.463Z,71.59
2018-05-14T07:15:16.060Z,69.41
2018-05-14T07:17:49.788Z,69.38
2018-05-14T07:20:23.518Z,69.63
2018-05-14T07:22:57.249Z,67.98
2018-05-14T07:25:30.801Z,64.41
2018-05-14T07:28:04.428Z,62.39
2018-05-14T07:30:38.012Z,63.39
2018-05-14T07:33:11.600Z,63.28
2018-05-14T07:35:45.135Z,61.41
2018-05-14T07:38:18.791Z,61.90
2018-05-14T07:40:52.371Z,63.72
2018-05-14T07:43:26.014Z,61.11
2018-05-14T07:45:59.688Z,62.38
2018-05-14T07:48:33.465Z,64.23
2018-05-14T07:51:07.213Z,62.82
2018-05-14T07:53:40.996Z,60.27
2018-05-14T07:56:14.656Z,58.99
2018-05-14T07:58:48.268Z,58.40
2018-05-14T08:01:22.038Z,59.93
2018-05-14T08:03:55.600Z,60.21
2018-05-14T08:06:29.450Z,57.15
2018-05-14T08:09:03.080Z,55.92
2018-05-14T08:11:36.952Z,53.52
2018-05-14T08:14:10.540Z,51.83
2018-05-14T08:16:44.320Z,53.72
2018-05-14T08:19:17.888Z,48.78
2018-05-14T08:21:51.399Z,49.93
2018-05-14T08:24:24.920Z,51.00
2018-05-14T08:26:58.732Z,48.91
2018-05-14T08:29:32.852Z,48.56
2018-05-14T08:32:06.512Z,46.01
2018-05-14T08:34:40.053Z,46.60
2018-05-14T08:37:13.878Z,45.46
2018-05-14T08:39:47.364Z,44.19
2018-05-14T08:42:20.946Z,47.44
2018-05-14T08:44:54.481Z,47.44
2018-05-14T08:47:28.560Z,46.22
2018-05-14T08:50:02.023Z,46.43
2018-05-14T08:52:35.584Z,40.41
2018-05-14T08:55:09.178Z,44.00
2018-05-14T08:57:42.702Z,40.68
2018-05-14T09:00:16.412Z,37.65
2018-05-14T09:02:49.962Z,43.36
2018-05-14T09:05:23.502Z,43.60
2018-05-14T09:07:57.148Z,43.29
2018-05-14T09:10:30.844Z,38.39
2018-05-14T09:13:04.442Z,40.89
2018-05-14T09:15:38.199Z,39.91
2018-05-14T09:18:11.861Z,41.05
2018-05-14T09:20:45.432Z,39.48
2018-05-14T09:23:19.117Z,41.90
2018-05-14T09:25:52.912Z,41.45
2018-05-14T09:28:26.500Z,45.20
2018-05-14T09:31:00.103Z,42.87
2018-05-14T09:33:33.838Z,42.99
2018-05-14T09:36:07.458Z,41.26
2018-05-14T09:38:41.209Z,36.51
2018-05-14T09:41:14.776Z,37.04
2018-05-14T09:43:48.398Z,36.40
2018-05-14T09:46:22.080Z,40.65
2018-05-14T09:48:55.612Z,44.86
2018-05-14T09:51:29.332Z,39.65
2018-05-14T09:54:02.896Z,38.47
2018-05-14T09:56:36.487Z,42.85
2018-05-14T09:59:10.081Z,39.08
2018-05-14T10:01:43.849Z,38.85
2018-05-14T10:04:17.427Z,40.46
2018-05-14T10:06:51.054Z,43.05
2018-05-14T10:09:24.749Z,40.89
2018-05-14T10:11:58.584Z,40.45
2018-05-14T10:14:32.163Z,37.80
2018-05-14T10:17:05.739Z,36.65
2018-05-14T10:19:39.610Z,37.94
2018-05-14T10:22:13.416Z,38.22
2018-05-14T10:24:46.977Z,37.10
2018-05-14T10:27:20.577Z,37.30
2018-05-14T10:29:54.198Z,37.27
2018-05-14T10:32:28.029Z,38.51
2018-05-14T10:35:01.816Z,41.27
2018-05-14T10:37:35.415Z,37.01
2018-05-14T10:40:09.120Z,37.18
2018-05-14T10:42:42.759Z,39.58
2018-05-14T10:45:16.344Z,37.86
2018-05-14T10:47:49.963Z,37.09
2018-05-14T10:50:23.592Z,38.59
2018-05-14T10:52:57.282Z,37.10
2018-05-14T10:55:30.953Z,34.55
2018-05-14T10:58:04.760Z,34.88
2018-05-14T11:00:38.348Z,35.99
2018-05-14T11:03:11.914Z,38.51
2018-05-14T11:05:45.467Z,38.77
2018-05-14T11:08:19.359Z,33.88
2018-05-14T11:10:53.043Z,33.63
2018-05-14T11:13:26.712Z,35.73
2018-05-14T11:16:00.267Z,33.67
2018-05-14T11:18:33.932Z,34.88
2018-05-14T11:21:07.696Z,34.69
2018-05-14T11:23:41.260Z,32.86
2018-05-14T11:26:15.106Z,34.19
2018-05-14T11:28:48.663Z,32.63
2018-05-14T11:31:22.176Z,33.25
2018-05-14T11:33:55.737Z,34.36
2018-05-14T11:39:41.201Z,34.73
2018-05-14T11:42:14.780Z,36.80
2018-05-14T11:44:48.537Z,40.12
2018-05-14T11:47:22.205Z,41.69
2018-05-14T11:49:55.890Z,43.27
2018-05-14T11:52:29.456Z,43.45
2018-05-14T11:55:03.216Z,44.51
2018-05-14T11:57:36.892Z,45.62
2018-05-14T12:00:10.490Z,47.33
2018-05-14T12:02:44.360Z,46.72
2018-05-14T12:05:17.941Z,46.06
2018-05-14T12:07:51.596Z,45.93
2018-05-14T12:10:25.186Z,46.76
2018-05-14T12:12:58.759Z,47.63
2018-05-14T12:15:32.646Z,46.39
2018-05-14T12:18:06.555Z,47.52
2018-05-14T12:20:40.060Z,48.50
2018-05-14T12:23:13.716Z,47.34
2018-05-14T12:25:47.308Z,47.33
2018-05-14T12:28:20.846Z,46.55
2018-05-14T12:30:54.424Z,47.06
2018-05-14T12:33:28.330Z,46.56
2018-05-14T12:36:02.088Z,46.06
2018-05-14T12:38:35.850Z,46.10
2018-05-14T12:41:09.652Z,47.12
2018-05-14T12:43:43.208Z,46.27
2018-05-14T12:46:16.804Z,46.17
2018-05-14T12:48:50.308Z,46.42
2018-05-14T12:51:23.976Z,46.75
2018-05-14T12:53:57.559Z,45.73
2018-05-14T12:56:31.157Z,46.16
2018-05-14T12:59:04.687Z,45.58
2018-05-14T13:01:38.450Z,46.56
2018-05-14T13:04:12.308Z,46.10
2018-05-14T13:06:45.976Z,44.52
2018-05-14T13:09:19.844Z,43.17
2018-05-14T13:11:53.444Z,43.62
2018-05-14T13:14:26.999Z,43.25
2018-05-14T13:17:00.642Z,43.42
2018-05-14T13:19:34.338Z,42.94
2018-05-14T13:22:07.941Z,42.79
2018-05-14T13:24:42.055Z,43.57
2018-05-14T13:27:15.716Z,42.61
2018-05-14T13:29:49.286Z,42.48
2018-05-14T13:32:22.917Z,42.05
2018-05-14T13:34:56.473Z,42.93
2018-05-14T13:37:30.209Z,40.61
2018-05-14T13:40:03.877Z,41.14
2018-05-14T13:42:37.509Z,40.61
2018-05-14T13:45:11.107Z,40.40
2018-05-14T13:47:44.783Z,39.46
2018-05-14T13:50:18.521Z,39.50
2018-05-14T13:52:52.371Z,40.45
2018-05-14T13:55:25.860Z,39.53
2018-05-14T13:57:59.498Z,39.14
2018-05-14T14:00:33.048Z,38.73
2018-05-14T14:03:06.695Z,38.45
2018-05-14T14:05:40.311Z,38.73
2018-05-14T14:08:13.860Z,37.10
2018-05-14T14:10:47.617Z,34.84
2018-05-14T14:13:21.258Z,34.87
2018-05-14T14:15:55.034Z,34.68
2018-05-14T14:18:28.671Z,35.24
2018-05-14T14:21:02.266Z,33.51
2018-05-14T14:23:36.021Z,31.76
2018-05-14T14:26:09.544Z,30.62
2018-05-14T14:28:43.119Z,29.78
2018-05-14T14:31:16.783Z,29.52
2018-05-14T14:33:50.363Z,29.04
2018-05-14T14:36:24.206Z,27.92
2018-05-14T14:38:57.950Z,27.61
2018-05-14T14:41:31.626Z,27.41
2018-05-14T14:44:05.400Z,26.63
2018-05-14T14:46:39.236Z,27.24
2018-05-14T14:49:12.977Z,26.04
2018-05-14T14:51:46.531Z,24.88
2018-05-14T14:54:20.151Z,26.27
2018-05-14T14:56:53.734Z,25.27
2018-05-14T14:59:27.304Z,26.53
2018-05-14T15:02:01.098Z,26.61
2018-05-14T15:04:34.812Z,25.91
2018-05-14T15:07:08.412Z,26.79
2018-05-14T15:09:42.127Z,25.83
2018-05-14T15:12:15.736Z,25.94
2018-05-14T15:14:49.533Z,25.04
2018-05-14T15:17:23.065Z,26.36
2018-05-14T15:19:56.594Z,25.48
2018-05-14T15:22:30.136Z,26.67
2018-05-14T15:25:03.752Z,25.98
2018-05-14T15:27:37.476Z,26.32
2018-05-14T15:30:11.326Z,27.29
2018-05-14T15:32:44.975Z,27.60
2018-05-14T15:35:18.615Z,28.62
2018-05-14T15:37:52.160Z,29.81
2018-05-14T15:40:25.701Z,30.06
2018-05-14T15:42:59.365Z,29.71
2018-05-14T15:45:33.029Z,30.09
2018-05-14T15:48:06.638Z,30.35
2018-05-14T15:50:40.396Z,30.61
2018-05-14T15:53:14.008Z,31.00
2018-05-14T15:55:47.623Z,31.20
2018-05-14T15:58:21.375Z,30.77
2018-05-14T16:00:55.148Z,30.71
2018-05-14T16:03:28.928Z,30.87
2018-05-14T16:06:02.504Z,31.39
2018-05-14T16:08:36.132Z,31.18
2018-05-14T16:11:09.968Z,31.39
2018-05-14T16:13:43.767Z,31.31
2018-05-14T16:16:17.392Z,31.96
2018-05-14T16:18:50.982Z,32.29
2018-05-14T16:21:24.968Z,32.28
2018-05-14T16:23:58.552Z,32.69
2018-05-14T16:26:32.273Z,32.65
2018-05-14T16:29:05.804Z,32.82
2018-05-14T16:31:39.531Z,33.42
2018-05-14T16:34:13.252Z,33.80
2018-05-14T16:36:47.064Z,33.10
2018-05-14T16:39:20.627Z,32.96
2018-05-14T16:41:54.324Z,33.25
2018-05-14T16:44:27.934Z,32.75
2018-05-14T16:47:01.751Z,32.37
2018-05-14T16:49:35.300Z,33.30
2018-05-14T16:52:09.037Z,32.27
2018-05-14T16:54:42.719Z,33.19
2018-05-14T16:57:16.290Z,32.55
2018-05-14T16:59:49.868Z,32.95
2018-05-14T17:02:23.604Z,32.54
2018-05-14T17:04:57.147Z,32.81
2018-05-14T17:07:30.804Z,32.89
2018-05-14T17:10:04.330Z,32.59
2018-05-14T17:12:38.088Z,33.31
2018-05-14T17:15:11.841Z,33.41
2018-05-14T17:17:45.385Z,33.42
2018-05-14T17:20:18.959Z,33.81
2018-05-14T17:22:52.736Z,33.42
2018-05-14T17:25:27.299Z,33.66
2018-05-14T17:28:00.966Z,32.77
2018-05-14T17:30:34.699Z,33.22
2018-05-14T17:33:08.340Z,32.75
2018-05-14T17:35:42.019Z,32.72
2018-05-14T17:38:15.607Z,32.60
2018-05-14T17:40:49.408Z,32.64
2018-05-14T17:43:23.032Z,33.03
2018-05-14T17:45:56.817Z,33.89
2018-05-14T17:48:30.524Z,33.85
2018-05-14T17:51:04.304Z,33.77
2018-05-14T17:53:37.887Z,33.97
2018-05-14T17:56:11.473Z,34.31
2018-05-14T17:58:45.136Z,34.55
2018-05-14T18:01:18.895Z,34.89
2018-05-14T18:03:52.431Z,35.02
2018-05-14T18:06:26.236Z,35.12
2018-05-14T18:08:59.727Z,35.41
2018-05-14T18:11:33.519Z,35.99
2018-05-14T18:14:07.120Z,36.51
2018-05-14T18:16:40.875Z,36.52
2018-05-14T18:19:14.485Z,36.54
2018-05-14T18:21:48.000Z,37.43
2018-05-14T18:24:21.568Z,37.27
2018-05-14T18:26:55.128Z,37.39
2018-05-14T18:29:30.677Z,37.72
2018-05-14T18:32:05.303Z,37.88
2018-05-14T18:34:39.892Z,38.09
2018-05-14T18:37:13.680Z,38.22
2018-05-14T18:39:47.341Z,38.71
2018-05-14T18:42:20.911Z,38.64
2018-05-14T18:44:54.507Z,39.10
2018-05-14T18:47:28.211Z,39.28
2018-05-14T18:50:01.829Z,39.69
2018-05-14T18:52:35.533Z,40.12
2018-05-14T18:55:09.106Z,40.25
2018-05-14T18:57:42.617Z,40.84
2018-05-14T19:00:16.388Z,41.20
2018-05-14T19:02:50.048Z,41.37
2018-05-14T19:05:23.707Z,42.68
2018-05-14T19:07:57.368Z,42.23
2018-05-14T19:10:36.931Z,42.28
2018-05-14T19:13:10.667Z,42.76
2018-05-14T19:15:50.082Z,42.65
2018-05-14T19:18:23.766Z,42.39
2018-05-14T19:20:57.400Z,42.44
2018-05-14T19:23:36.740Z,43.59
2018-05-14T19:26:10.403Z,42.98
2018-05-14T19:28:49.811Z,43.58
2018-05-14T19:31:23.498Z,43.37
2018-05-14T19:34:02.994Z,43.58
2018-05-14T19:36:36.719Z,43.67
2018-05-14T19:39:10.277Z,43.74
2018-05-14T19:41:43.832Z,43.94
2018-05-14T19:44:17.594Z,43.73
2018-05-14T19:46:51.436Z,43.69
2018-05-14T19:49:25.178Z,42.77
2018-05-14T19:51:58.904Z,42.68
2018-05-14T19:54:32.663Z,43.38
2018-05-14T19:57:06.277Z,43.37
2018-05-14T19:59:39.960Z,43.62
2018-05-14T20:02:13.593Z,44.47
2018-05-14T20:04:47.330Z,44.32
2018-05-14T20:07:20.912Z,44.39
2018-05-14T20:09:54.659Z,43.98
2018-05-14T20:12:28.483Z,44.00
2018-05-14T20:15:02.047Z,43.48
2018-05-14T20:17:35.552Z,44.26
2018-05-14T20:20:09.316Z,43.91
2018-05-14T20:22:43.057Z,43.49
2018-05-14T20:25:16.853Z,44.40
2018-05-14T20:27:50.518Z,43.79
2018-05-14T20:30:24.344Z,44.19
2018-05-14T20:32:57.960Z,43.47
2018-05-14T20:35:31.803Z,43.70
2018-05-14T20:38:05.375Z,44.15
2018-05-14T20:40:39.233Z,44.89
2018-05-14T20:43:12.797Z,44.72
2018-05-14T20:45:46.528Z,44.69
2018-05-14T20:48:20.311Z,44.43
2018-05-14T20:50:54.075Z,45.00
2018-05-14T20:53:27.652Z,44.64
2018-05-14T20:56:01.207Z,44.37
2018-05-14T20:58:35.008Z,45.24
2018-05-14T21:01:08.598Z,44.67
2018-05-14T21:03:42.198Z,44.71
2018-05-14T21:06:15.714Z,45.14
2018-05-14T21:08:49.473Z,45.51
2018-05-14T21:11:23.183Z,45.28
2018-05-14T21:13:56.884Z,45.77
2018-05-14T21:16:30.477Z,45.59
2018-05-14T21:19:04.075Z,45.16
2018-05-14T21:21:37.732Z,45.24
2018-05-14T21:24:11.324Z,45.04
2018-05-14T21:26:45.069Z,44.58
2018-05-14T21:29:18.747Z,45.54
2018-05-14T21:31:52.280Z,43.84
2018-05-14T21:34:25.947Z,44.05
2018-05-14T21:36:59.527Z,45.05
2018-05-14T21:39:33.300Z,44.24
2018-05-14T21:42:07.036Z,43.88
2018-05-14T21:44:40.563Z,43.43
2018-05-14T21:47:14.127Z,42.32
2018-05-14T21:49:47.907Z,43.06
2018-05-14T21:52:21.583Z,42.43
2018-05-14T21:54:55.298Z,42.55
2018-05-14T21:57:28.878Z,41.87
2018-05-14T22:00:02.657Z,42.39
2018-05-14T22:02:36.448Z,42.05
2018-05-14T22:05:10.030Z,42.14
2018-05-14T22:07:43.528Z,41.99
2018-05-14T22:10:17.221Z,41.96
2018-05-14T22:12:50.917Z,42.11
2018-05-14T22:15:24.510Z,41.66
2018-05-14T22:17:58.176Z,41.69
2018-05-14T22:20:31.907Z,41.61
2018-05-14T22:23:05.448Z,41.68
2018-05-14T22:25:39.104Z,41.35
2018-05-14T22:28:12.783Z,41.23
2018-05-14T22:30:46.300Z,41.97
2018-05-14T22:33:19.907Z,41.05
2018-05-14T22:35:53.536Z,41.64
2018-05-14T22:38:27.122Z,42.08
2018-05-14T22:41:00.636Z,40.34
2018-05-14T22:43:34.197Z,44.32
2018-05-14T22:46:07.848Z,41.43
2018-05-14T22:48:41.467Z,40.77
2018-05-14T22:51:15.199Z,40.70
2018-05-14T22:53:48.868Z,41.69
2018-05-14T22:56:39.275Z,42.85
2018-05-14T22:59:13.032Z,41.54
2018-05-14T23:01:46.809Z,41.01
2018-05-14T23:04:20.416Z,40.64
2018-05-14T23:06:54.267Z,40.34
2018-05-14T23:09:28.042Z,39.76
2018-05-14T23:12:01.825Z,40.73
2018-05-14T23:14:35.408Z,40.02
2018-05-14T23:17:09.078Z,41.33
2018-05-14T23:19:42.748Z,41.22
2018-05-14T23:22:16.328Z,41.58
2018-05-14T23:24:49.949Z,41.22
2018-05-14T23:27:23.576Z,43.13
2018-05-14T23:29:57.397Z,41.59
2018-05-14T23:32:31.118Z,41.13
2018-05-14T23:35:04.809Z,42.89
2018-05-14T23:37:38.521Z,41.47
2018-05-14T23:40:12.055Z,43.14
2018-05-14T23:42:46.056Z,42.22
2018-05-14T23:45:19.707Z,42.48
2018-05-14T23:47:53.473Z,42.99
2018-05-14T23:50:27.120Z,43.83
2018-05-14T23:53:00.699Z,46.58
2018-05-14T23:55:34.337Z,45.86
2018-05-14T23:58:07.958Z,46.35
